This is the latest recevied weather packets stored in our database for station/object KG7QQL. If no packets are shown the sender has not sent any weather packets the latest 10 day(s).
| Time | Temp. | Humidity | Pressure | Rain* | Wind** | Luminosity | Snow |
|---|---|---|---|---|---|---|---|
| 1777588386 | 21.67° C | 52% | - | 0 mm | - | - | - |
| 1777588082 | 21.11° C | 55% | - | 0 mm | - | - | - |
| 1777587773 | 21.11° C | 55% | - | 0 mm | - | - | - |
| 1777587471 | 21.11° C | 54% | - | 0 mm | - | - | - |
| 1777587169 | 21.11° C | 54% | - | 0 mm | - | - | - |
| 1777586864 | 21.11° C | 55% | - | 0 mm | - | - | - |
| 1777586560 | 21.11° C | 56% | - | 0 mm | - | - | - |
| 1777586256 | 21.67° C | 56% | - | 0 mm | - | - | - |
| 1777585953 | 21.11° C | 57% | - | 0 mm | - | - | - |
| 1777585648 | 21.67° C | 56% | - | 0 mm | - | - | - |
| 1777585344 | 21.11° C | 57% | - | 0 mm | - | - | - |
| 1777585039 | 20° C | 61% | - | 0 mm | - | - | - |
| 1777584735 | 20° C | 59% | - | 0 mm | - | - | - |
| 1777584433 | 20° C | 61% | - | 0 mm | - | - | - |
| 1777584129 | 20° C | 61% | - | 0 mm | - | - | - |
| 1777583828 | 19.44° C | 61% | - | 0 mm | - | - | - |
| 1777583523 | 19.44° C | 61% | - | 0 mm | - | - | - |
| 1777583218 | 19.44° C | 61% | - | 0 mm | - | - | - |
| 1777582912 | 19.44° C | 62% | - | 0 mm | - | - | - |
| 1777582611 | 18.89° C | 62% | - | 0 mm | - | - | - |
| 1777582305 | 18.89° C | 63% | - | 0 mm | - | - | - |
| 1777582004 | 18.33° C | 66% | - | 0 mm | - | - | - |
| 1777581698 | 17.78° C | 67% | - | 0 mm | - | - | - |
| 1777581392 | 17.78° C | 66% | - | 0 mm | - | - | - |
| 1777581087 | 18.89° C | 64% | - | 0 mm | - | - | - |
* Rain latest hour (hover to see other rain measurements)
** Current wind speed in m/s (hover to see current wind gust speed)